Airfield :
LOGIN :

Register | Disclaimer

   EN    FR    IT 

 










Legend :    VFR   Marginal VFR   IFR   Intensive IFR   Very Intensive IFR
Visi :
Ceiling :
>= 8 km
>= 3000ft
5 to 8 km
1000 to 3000 ft
1500m to 5 km
500 to 1000 ft
800 to 1500m
200 to 500 ft
< 800m
< 200 ft
Symbols :   Thunderstorms  Fog  Heavy snow  Heavy precipitations  Wind > 20 kt
SIGMETs :     Misc.  Thunderstorms  Icing  Turbulence  Mountain Waves  Volcanic Ashes







- Airport Elevation : 55 ft
- IATA code : DSA
- Download approach charts


EGCN - Robin Hood Doncaster Sheffield

CURRENT METAR :
  • 251450Z 33009KT 6000 -RA BKN003 OVC012 14/13 Q1023

EXPIRED METARs :
  • 251420Z 34010KT 4000 -RADZ BKN003 BKN006 OVC011 14/14 Q1023
  • 251350Z 34010KT 3000 -RA BKN003 BKN006 OVC012 14/14 Q1022
  • 251320Z 34008KT 3800 -RADZ BKN003 BKN007 OVC010 14/14 Q1022
  • 251250Z 35010KT 4300 -RA BKN005 OVC008 14/14 Q1022
  • 251220Z 35009KT 9999 FEW004 BKN008 14/14 Q1022

TAF TAF EGCN
Valid from the 25 at 12:00 until the 26 at 12:00 UTC


251059Z 2512/2612 35008KT 9999 SCT004 BKN008
TEMPO 2512/2515 3000 RA BKN004
TEMPO 2515/2608 3000 -DZ BR BKN004
BECMG 2608/2610 BKN012
BECMG 2610/2612 BKN020
No reported NOTAMs for that airfield.
1 SIGMET reported for the London FIR (EGTT) :
 
Embedded thunderstorms
EGTT SIGMET 04 VALID 251300/251700 EGRR
EGTT LONDON FIR EMBD TS FCST WI N5446 E00441 - N5302 W00002 - N5455 E00147 - N5500 E00214 - N5500 E00448 - N5446 E00441 TOP FL350 MOV NE 15KT WKN=



MET'MAP, your aeronautical weather chart ! - Copyright ORBIFLY December 2007 - Disclaimer

ORBIFLY MET'MAP TEAM :

Programming & Development : Alexandra Zaïnal
Concept & Development : Baudouin d'Aumeries
Co-Development & Prog : Marc-Olivier Méhu
Technical & hardware support : Manuel Goepfert

Contact : metmap@orbifly.com




SOURCES & CREDITS :

   NOAA